sensor_id;sensor_type;location;lat;lon;timestamp;P1;durP1;ratioP1;P2;durP2;ratioP2
17504;SDS011;8870;50.950;11.762;2024-01-16T00:01:47;1.52;;;0.80;;
17504;SDS011;8870;50.950;11.762;2024-01-16T00:07:19;2.80;;;0.93;;
17504;SDS011;8870;50.950;11.762;2024-01-16T00:12:40;2.40;;;1.00;;
17504;SDS011;8870;50.950;11.762;2024-01-16T00:18:12;2.65;;;1.00;;
17504;SDS011;8870;50.950;11.762;2024-01-16T00:23:43;1.90;;;0.80;;
17504;SDS011;8870;50.950;11.762;2024-01-16T00:29:04;1.83;;;0.70;;
17504;SDS011;8870;50.950;11.762;2024-01-16T00:34:35;2.30;;;1.00;;
17504;SDS011;8870;50.950;11.762;2024-01-16T00:39:53;2.20;;;0.80;;
17504;SDS011;8870;50.950;11.762;2024-01-16T00:45:30;1.00;;;0.73;;
17504;SDS011;8870;50.950;11.762;2024-01-16T00:50:48;3.25;;;0.90;;
17504;SDS011;8870;50.950;11.762;2024-01-16T00:56:19;3.88;;;0.98;;
17504;SDS011;8870;50.950;11.762;2024-01-16T01:01:57;2.53;;;0.70;;
17504;SDS011;8870;50.950;11.762;2024-01-16T01:07:31;3.97;;;0.80;;
17504;SDS011;8870;50.950;11.762;2024-01-16T01:12:49;1.73;;;0.80;;
17504;SDS011;8870;50.950;11.762;2024-01-16T01:18:22;2.40;;;0.82;;
17504;SDS011;8870;50.950;11.762;2024-01-16T01:23:41;2.22;;;0.80;;
17504;SDS011;8870;50.950;11.762;2024-01-16T01:29:12;2.38;;;0.98;;
17504;SDS011;8870;50.950;11.762;2024-01-16T01:34:34;1.58;;;0.80;;
17504;SDS011;8870;50.950;11.762;2024-01-16T01:40:06;1.73;;;0.82;;
17504;SDS011;8870;50.950;11.762;2024-01-16T01:45:27;2.90;;;0.90;;
17504;SDS011;8870;50.950;11.762;2024-01-16T01:51:01;2.63;;;1.17;;
17504;SDS011;8870;50.950;11.762;2024-01-16T01:56:19;2.20;;;0.85;;
17504;SDS011;8870;50.950;11.762;2024-01-16T02:01:52;2.72;;;0.98;;
17504;SDS011;8870;50.950;11.762;2024-01-16T02:07:27;3.22;;;0.95;;
17504;SDS011;8870;50.950;11.762;2024-01-16T02:12:46;1.83;;;0.85;;
17504;SDS011;8870;50.950;11.762;2024-01-16T02:18:17;1.20;;;0.90;;
17504;SDS011;8870;50.950;11.762;2024-01-16T02:23:38;2.60;;;0.95;;
17504;SDS011;8870;50.950;11.762;2024-01-16T02:29:09;2.88;;;0.88;;
17504;SDS011;8870;50.950;11.762;2024-01-16T02:34:28;2.13;;;0.95;;
17504;SDS011;8870;50.950;11.762;2024-01-16T02:40:03;2.97;;;0.90;;
17504;SDS011;8870;50.950;11.762;2024-01-16T02:45:22;3.03;;;0.80;;
17504;SDS011;8870;50.950;11.762;2024-01-16T02:50:54;2.05;;;0.70;;
17504;SDS011;8870;50.950;11.762;2024-01-16T02:56:15;1.83;;;0.82;;
17504;SDS011;8870;50.950;11.762;2024-01-16T03:01:46;2.35;;;0.90;;
17504;SDS011;8870;50.950;11.762;2024-01-16T03:07:05;4.10;;;1.33;;
17504;SDS011;8870;50.950;11.762;2024-01-16T03:12:39;3.45;;;1.23;;
17504;SDS011;8870;50.950;11.762;2024-01-16T03:17:57;1.80;;;0.80;;
17504;SDS011;8870;50.950;11.762;2024-01-16T03:23:28;2.90;;;0.80;;
17504;SDS011;8870;50.950;11.762;2024-01-16T03:28:49;2.53;;;0.80;;
17504;SDS011;8870;50.950;11.762;2024-01-16T03:34:20;1.60;;;0.70;;
17504;SDS011;8870;50.950;11.762;2024-01-16T03:39:38;1.52;;;0.80;;
17504;SDS011;8870;50.950;11.762;2024-01-16T03:45:12;2.15;;;1.00;;
17504;SDS011;8870;50.950;11.762;2024-01-16T03:50:30;1.92;;;0.70;;
17504;SDS011;8870;50.950;11.762;2024-01-16T03:56:05;3.28;;;0.93;;
17504;SDS011;8870;50.950;11.762;2024-01-16T04:01:33;2.90;;;1.05;;
17504;SDS011;8870;50.950;11.762;2024-01-16T04:07:07;3.58;;;1.17;;
17504;SDS011;8870;50.950;11.762;2024-01-16T04:12:25;3.45;;;1.30;;
17504;SDS011;8870;50.950;11.762;2024-01-16T04:17:59;3.40;;;1.20;;
17504;SDS011;8870;50.950;11.762;2024-01-16T04:23:17;1.80;;;1.20;;
17504;SDS011;8870;50.950;11.762;2024-01-16T04:28:48;4.28;;;1.02;;
17504;SDS011;8870;50.950;11.762;2024-01-16T04:34:09;1.83;;;0.90;;
17504;SDS011;8870;50.950;11.762;2024-01-16T04:39:40;5.40;;;1.15;;
17504;SDS011;8870;50.950;11.762;2024-01-16T04:44:58;2.70;;;1.10;;
17504;SDS011;8870;50.950;11.762;2024-01-16T04:50:32;1.48;;;1.00;;
17504;SDS011;8870;50.950;11.762;2024-01-16T04:55:50;2.80;;;1.00;;
17504;SDS011;8870;50.950;11.762;2024-01-16T05:01:22;3.47;;;1.10;;
17504;SDS011;8870;50.950;11.762;2024-01-16T05:06:56;3.10;;;1.02;;
17504;SDS011;8870;50.950;11.762;2024-01-16T05:12:14;2.95;;;1.30;;
17504;SDS011;8870;50.950;11.762;2024-01-16T05:17:46;3.03;;;1.08;;
17504;SDS011;8870;50.950;11.762;2024-01-16T05:23:07;3.47;;;1.20;;
17504;SDS011;8870;50.950;11.762;2024-01-16T05:28:39;3.72;;;1.00;;
17504;SDS011;8870;50.950;11.762;2024-01-16T05:33:57;4.25;;;1.30;;
17504;SDS011;8870;50.950;11.762;2024-01-16T05:39:31;2.72;;;1.10;;
17504;SDS011;8870;50.950;11.762;2024-01-16T05:44:49;3.10;;;1.05;;
17504;SDS011;8870;50.950;11.762;2024-01-16T05:50:20;3.63;;;1.10;;
17504;SDS011;8870;50.950;11.762;2024-01-16T05:55:41;5.68;;;1.35;;
17504;SDS011;8870;50.950;11.762;2024-01-16T06:01:12;3.95;;;1.38;;
17504;SDS011;8870;50.950;11.762;2024-01-16T06:06:43;3.00;;;1.10;;
17504;SDS011;8870;50.950;11.762;2024-01-16T06:12:05;5.75;;;1.38;;
17504;SDS011;8870;50.950;11.762;2024-01-16T06:17:37;4.55;;;1.50;;
17504;SDS011;8870;50.950;11.762;2024-01-16T06:22:55;4.70;;;1.40;;
17504;SDS011;8870;50.950;11.762;2024-01-16T06:28:29;3.70;;;1.33;;
17504;SDS011;8870;50.950;11.762;2024-01-16T06:33:47;5.13;;;1.50;;
17504;SDS011;8870;50.950;11.762;2024-01-16T06:39:18;3.65;;;1.45;;
17504;SDS011;8870;50.950;11.762;2024-01-16T06:44:39;2.15;;;1.20;;
17504;SDS011;8870;50.950;11.762;2024-01-16T06:50:10;2.85;;;1.27;;
17504;SDS011;8870;50.950;11.762;2024-01-16T06:55:28;3.60;;;1.30;;
17504;SDS011;8870;50.950;11.762;2024-01-16T07:01:03;4.80;;;1.40;;
17504;SDS011;8870;50.950;11.762;2024-01-16T07:06:36;3.38;;;1.42;;
17504;SDS011;8870;50.950;11.762;2024-01-16T07:12:04;5.10;;;1.70;;
17504;SDS011;8870;50.950;11.762;2024-01-16T07:17:38;2.63;;;1.33;;
17504;SDS011;8870;50.950;11.762;2024-01-16T07:22:56;5.50;;;1.60;;
17504;SDS011;8870;50.950;11.762;2024-01-16T07:28:30;7.30;;;1.75;;
17504;SDS011;8870;50.950;11.762;2024-01-16T07:33:51;4.95;;;1.60;;
17504;SDS011;8870;50.950;11.762;2024-01-16T07:39:22;4.32;;;1.40;;
17504;SDS011;8870;50.950;11.762;2024-01-16T07:44:40;3.75;;;1.27;;
17504;SDS011;8870;50.950;11.762;2024-01-16T07:50:14;4.65;;;1.63;;
17504;SDS011;8870;50.950;11.762;2024-01-16T07:55:32;4.13;;;1.48;;
17504;SDS011;8870;50.950;11.762;2024-01-16T08:01:03;2.78;;;1.35;;
17504;SDS011;8870;50.950;11.762;2024-01-16T08:06:37;4.25;;;1.42;;
17504;SDS011;8870;50.950;11.762;2024-01-16T08:11:55;3.67;;;1.60;;
17504;SDS011;8870;50.950;11.762;2024-01-16T08:17:27;2.25;;;1.30;;
17504;SDS011;8870;50.950;11.762;2024-01-16T08:22:48;4.60;;;1.30;;
17504;SDS011;8870;50.950;11.762;2024-01-16T08:28:21;5.93;;;1.75;;
17504;SDS011;8870;50.950;11.762;2024-01-16T08:33:40;2.53;;;1.20;;
17504;SDS011;8870;50.950;11.762;2024-01-16T08:39:15;3.50;;;1.20;;
17504;SDS011;8870;50.950;11.762;2024-01-16T08:44:34;4.03;;;1.50;;
17504;SDS011;8870;50.950;11.762;2024-01-16T08:50:06;3.47;;;1.20;;
17504;SDS011;8870;50.950;11.762;2024-01-16T08:55:28;3.38;;;1.27;;
17504;SDS011;8870;50.950;11.762;2024-01-16T09:00:59;4.07;;;1.30;;
17504;SDS011;8870;50.950;11.762;2024-01-16T09:06:18;4.03;;;1.17;;
17504;SDS011;8870;50.950;11.762;2024-01-16T09:11:52;3.45;;;1.30;;
17504;SDS011;8870;50.950;11.762;2024-01-16T09:17:14;3.20;;;1.10;;
17504;SDS011;8870;50.950;11.762;2024-01-16T09:22:47;2.15;;;1.05;;
17504;SDS011;8870;50.950;11.762;2024-01-16T09:28:08;2.00;;;0.90;;
17504;SDS011;8870;50.950;11.762;2024-01-16T09:38:54;4.82;;;1.00;;
17504;SDS011;8870;50.950;11.762;2024-01-16T09:44:30;2.47;;;1.35;;
17504;SDS011;8870;50.950;11.762;2024-01-16T09:49:48;3.38;;;1.00;;
17504;SDS011;8870;50.950;11.762;2024-01-16T09:55:20;2.70;;;1.13;;
17504;SDS011;8870;50.950;11.762;2024-01-16T10:00:41;4.28;;;1.20;;
17504;SDS011;8870;50.950;11.762;2024-01-16T10:06:13;5.10;;;1.25;;
17504;SDS011;8870;50.950;11.762;2024-01-16T10:11:36;3.13;;;1.13;;
17504;SDS011;8870;50.950;11.762;2024-01-16T10:17:10;2.40;;;1.05;;
17504;SDS011;8870;50.950;11.762;2024-01-16T10:22:33;2.58;;;1.08;;
17504;SDS011;8870;50.950;11.762;2024-01-16T10:28:07;2.97;;;1.23;;
17504;SDS011;8870;50.950;11.762;2024-01-16T10:33:33;3.45;;;1.30;;
17504;SDS011;8870;50.950;11.762;2024-01-16T10:39:04;1.98;;;0.90;;
17504;SDS011;8870;50.950;11.762;2024-01-16T10:44:30;2.30;;;0.90;;
17504;SDS011;8870;50.950;11.762;2024-01-16T10:50:04;4.05;;;1.30;;
17504;SDS011;8870;50.950;11.762;2024-01-16T10:55:24;1.88;;;0.82;;
17504;SDS011;8870;50.950;11.762;2024-01-16T11:06:26;2.97;;;1.10;;
17504;SDS011;8870;50.950;11.762;2024-01-16T11:11:58;2.70;;;1.00;;
17504;SDS011;8870;50.950;11.762;2024-01-16T11:17:18;2.92;;;1.10;;
17504;SDS011;8870;50.950;11.762;2024-01-16T11:22:52;3.10;;;1.17;;
17504;SDS011;8870;50.950;11.762;2024-01-16T11:28:14;3.58;;;1.17;;
17504;SDS011;8870;50.950;11.762;2024-01-16T11:33:47;2.70;;;1.10;;
17504;SDS011;8870;50.950;11.762;2024-01-16T11:39:22;2.63;;;1.10;;
17504;SDS011;8870;50.950;11.762;2024-01-16T11:44:42;3.05;;;1.10;;
17504;SDS011;8870;50.950;11.762;2024-01-16T11:50:27;3.05;;;1.10;;
17504;SDS011;8870;50.950;11.762;2024-01-16T11:56:09;2.37;;;1.05;;
17504;SDS011;8870;50.950;11.762;2024-01-16T12:01:57;2.75;;;1.10;;
17504;SDS011;8870;50.950;11.762;2024-01-16T12:07:17;2.78;;;1.10;;
17504;SDS011;8870;50.950;11.762;2024-01-16T12:18:18;4.97;;;1.10;;
17504;SDS011;8870;50.950;11.762;2024-01-16T12:23:59;1.77;;;1.10;;
17504;SDS011;8870;50.950;11.762;2024-01-16T12:29:27;3.38;;;1.45;;
17504;SDS011;8870;50.950;11.762;2024-01-16T12:34:58;2.03;;;1.10;;
17504;SDS011;8870;50.950;11.762;2024-01-16T12:40:16;2.67;;;1.33;;
17504;SDS011;8870;50.950;11.762;2024-01-16T12:45:54;3.00;;;1.30;;
17504;SDS011;8870;50.950;11.762;2024-01-16T12:51:20;2.00;;;1.10;;
17504;SDS011;8870;50.950;11.762;2024-01-16T13:02:10;1.73;;;0.82;;
17504;SDS011;8870;50.950;11.762;2024-01-16T13:08:02;2.80;;;1.02;;
17504;SDS011;8870;50.950;11.762;2024-01-16T13:13:35;1.98;;;1.10;;
17504;SDS011;8870;50.950;11.762;2024-01-16T13:19:09;3.65;;;1.10;;
17504;SDS011;8870;50.950;11.762;2024-01-16T13:30:15;2.05;;;1.08;;
17504;SDS011;8870;50.950;11.762;2024-01-16T13:35:54;2.55;;;1.00;;
17504;SDS011;8870;50.950;11.762;2024-01-16T13:41:30;1.70;;;0.90;;
17504;SDS011;8870;50.950;11.762;2024-01-16T13:46:48;2.05;;;1.00;;
17504;SDS011;8870;50.950;11.762;2024-01-16T13:52:28;1.90;;;0.95;;
17504;SDS011;8870;50.950;11.762;2024-01-16T13:57:46;2.17;;;1.00;;
17504;SDS011;8870;50.950;11.762;2024-01-16T14:03:19;4.68;;;1.13;;
17504;SDS011;8870;50.950;11.762;2024-01-16T14:08:41;1.83;;;0.90;;
17504;SDS011;8870;50.950;11.762;2024-01-16T14:14:13;2.00;;;1.08;;
17504;SDS011;8870;50.950;11.762;2024-01-16T14:19:35;2.22;;;1.20;;
17504;SDS011;8870;50.950;11.762;2024-01-16T14:25:10;2.92;;;1.10;;
17504;SDS011;8870;50.950;11.762;2024-01-16T14:30:30;3.53;;;1.08;;
17504;SDS011;8870;50.950;11.762;2024-01-16T14:36:04;4.07;;;1.10;;
17504;SDS011;8870;50.950;11.762;2024-01-16T14:41:26;3.50;;;1.20;;
17504;SDS011;8870;50.950;11.762;2024-01-16T14:46:57;5.15;;;1.10;;
17504;SDS011;8870;50.950;11.762;2024-01-16T14:52:16;2.28;;;1.20;;
17504;SDS011;8870;50.950;11.762;2024-01-16T14:57:52;1.67;;;1.10;;
17504;SDS011;8870;50.950;11.762;2024-01-16T15:03:15;1.10;;;0.88;;
17504;SDS011;8870;50.950;11.762;2024-01-16T15:08:48;1.95;;;1.00;;
17504;SDS011;8870;50.950;11.762;2024-01-16T15:14:10;2.28;;;1.10;;
17504;SDS011;8870;50.950;11.762;2024-01-16T15:19:43;2.75;;;1.10;;
17504;SDS011;8870;50.950;11.762;2024-01-16T15:25:08;2.30;;;1.38;;
17504;SDS011;8870;50.950;11.762;2024-01-16T15:36:25;4.57;;;1.10;;
17504;SDS011;8870;50.950;11.762;2024-01-16T15:41:56;2.95;;;1.65;;
17504;SDS011;8870;50.950;11.762;2024-01-16T15:47:14;3.47;;;1.75;;
17504;SDS011;8870;50.950;11.762;2024-01-16T15:58:03;2.85;;;1.90;;
17504;SDS011;8870;50.950;11.762;2024-01-16T16:03:34;4.03;;;1.83;;
17504;SDS011;8870;50.950;11.762;2024-01-16T16:08:55;3.10;;;1.63;;
17504;SDS011;8870;50.950;11.762;2024-01-16T16:14:28;4.60;;;2.60;;
17504;SDS011;8870;50.950;11.762;2024-01-16T16:19:47;4.43;;;2.75;;
17504;SDS011;8870;50.950;11.762;2024-01-16T16:25:21;4.47;;;2.15;;
17504;SDS011;8870;50.950;11.762;2024-01-16T16:30:39;4.72;;;1.90;;
17504;SDS011;8870;50.950;11.762;2024-01-16T16:36:10;4.22;;;2.60;;
17504;SDS011;8870;50.950;11.762;2024-01-16T16:41:31;4.22;;;2.08;;
17504;SDS011;8870;50.950;11.762;2024-01-16T16:47:03;5.35;;;2.10;;
17504;SDS011;8870;50.950;11.762;2024-01-16T16:52:36;3.58;;;2.10;;
17504;SDS011;8870;50.950;11.762;2024-01-16T16:57:57;4.80;;;2.05;;
17504;SDS011;8870;50.950;11.762;2024-01-16T17:03:30;3.67;;;1.88;;
17504;SDS011;8870;50.950;11.762;2024-01-16T17:08:49;7.72;;;2.55;;
17504;SDS011;8870;50.950;11.762;2024-01-16T17:14:23;4.85;;;2.50;;
17504;SDS011;8870;50.950;11.762;2024-01-16T17:19:41;5.10;;;3.10;;
17504;SDS011;8870;50.950;11.762;2024-01-16T17:25:13;5.72;;;3.53;;
17504;SDS011;8870;50.950;11.762;2024-01-16T17:30:34;6.70;;;3.65;;
17504;SDS011;8870;50.950;11.762;2024-01-16T17:36:09;10.25;;;4.65;;
17504;SDS011;8870;50.950;11.762;2024-01-16T17:41:30;9.38;;;4.53;;
17504;SDS011;8870;50.950;11.762;2024-01-16T17:47:03;5.18;;;2.97;;
17504;SDS011;8870;50.950;11.762;2024-01-16T17:52:35;5.90;;;3.20;;
17504;SDS011;8870;50.950;11.762;2024-01-16T17:57:53;6.15;;;3.00;;
17504;SDS011;8870;50.950;11.762;2024-01-16T18:03:27;5.60;;;3.05;;
17504;SDS011;8870;50.950;11.762;2024-01-16T18:08:52;7.10;;;3.08;;
17504;SDS011;8870;50.950;11.762;2024-01-16T18:14:30;4.30;;;2.78;;
17504;SDS011;8870;50.950;11.762;2024-01-16T18:19:51;6.07;;;2.97;;
17504;SDS011;8870;50.950;11.762;2024-01-16T18:25:24;6.70;;;3.03;;
17504;SDS011;8870;50.950;11.762;2024-01-16T18:30:43;6.00;;;3.00;;
17504;SDS011;8870;50.950;11.762;2024-01-16T18:36:16;5.65;;;3.17;;
17504;SDS011;8870;50.950;11.762;2024-01-16T18:41:34;4.30;;;2.80;;
17504;SDS011;8870;50.950;11.762;2024-01-16T18:47:06;6.13;;;3.22;;
17504;SDS011;8870;50.950;11.762;2024-01-16T18:52:40;4.85;;;2.97;;
17504;SDS011;8870;50.950;11.762;2024-01-16T18:58:00;6.13;;;3.10;;
17504;SDS011;8870;50.950;11.762;2024-01-16T19:03:31;5.80;;;2.95;;
17504;SDS011;8870;50.950;11.762;2024-01-16T19:08:53;5.47;;;2.70;;
17504;SDS011;8870;50.950;11.762;2024-01-16T19:14:26;6.32;;;3.30;;
17504;SDS011;8870;50.950;11.762;2024-01-16T19:19:53;4.80;;;2.88;;
17504;SDS011;8870;50.950;11.762;2024-01-16T19:30:42;6.53;;;3.25;;
17504;SDS011;8870;50.950;11.762;2024-01-16T19:42:04;7.90;;;3.20;;
17504;SDS011;8870;50.950;11.762;2024-01-16T19:47:34;5.82;;;3.65;;
17504;SDS011;8870;50.950;11.762;2024-01-16T19:59:36;5.13;;;3.53;;
17504;SDS011;8870;50.950;11.762;2024-01-16T20:05:19;9.18;;;4.05;;
17504;SDS011;8870;50.950;11.762;2024-01-16T20:10:40;7.15;;;3.90;;
17504;SDS011;8870;50.950;11.762;2024-01-16T20:16:20;6.63;;;3.72;;
17504;SDS011;8870;50.950;11.762;2024-01-16T20:21:45;6.38;;;3.65;;
17504;SDS011;8870;50.950;11.762;2024-01-16T20:27:16;7.78;;;3.78;;
17504;SDS011;8870;50.950;11.762;2024-01-16T20:32:37;6.68;;;4.30;;
17504;SDS011;8870;50.950;11.762;2024-01-16T20:38:10;8.35;;;4.10;;
17504;SDS011;8870;50.950;11.762;2024-01-16T20:43:30;6.95;;;3.53;;
17504;SDS011;8870;50.950;11.762;2024-01-16T20:49:04;5.75;;;3.78;;
17504;SDS011;8870;50.950;11.762;2024-01-16T20:54:39;6.18;;;3.67;;
17504;SDS011;8870;50.950;11.762;2024-01-16T20:59:57;6.72;;;3.70;;
17504;SDS011;8870;50.950;11.762;2024-01-16T21:05:35;7.25;;;3.72;;
17504;SDS011;8870;50.950;11.762;2024-01-16T21:10:54;9.95;;;4.60;;
17504;SDS011;8870;50.950;11.762;2024-01-16T21:16:24;8.98;;;5.10;;
17504;SDS011;8870;50.950;11.762;2024-01-16T21:21:46;7.78;;;4.63;;
17504;SDS011;8870;50.950;11.762;2024-01-16T21:27:18;8.50;;;5.28;;
17504;SDS011;8870;50.950;11.762;2024-01-16T21:32:38;7.55;;;4.47;;
17504;SDS011;8870;50.950;11.762;2024-01-16T21:38:12;6.70;;;4.15;;
17504;SDS011;8870;50.950;11.762;2024-01-16T21:43:31;6.10;;;3.30;;
17504;SDS011;8870;50.950;11.762;2024-01-16T21:49:01;6.65;;;3.72;;
17504;SDS011;8870;50.950;11.762;2024-01-16T21:54:35;8.18;;;3.75;;
17504;SDS011;8870;50.950;11.762;2024-01-16T21:59:53;7.70;;;4.10;;
17504;SDS011;8870;50.950;11.762;2024-01-16T22:05:25;7.60;;;4.18;;
17504;SDS011;8870;50.950;11.762;2024-01-16T22:10:46;5.40;;;3.72;;
17504;SDS011;8870;50.950;11.762;2024-01-16T22:16:17;8.77;;;4.03;;
17504;SDS011;8870;50.950;11.762;2024-01-16T22:21:48;9.50;;;4.30;;
17504;SDS011;8870;50.950;11.762;2024-01-16T22:27:09;7.38;;;4.50;;
17504;SDS011;8870;50.950;11.762;2024-01-16T22:32:40;8.88;;;4.20;;
17504;SDS011;8870;50.950;11.762;2024-01-16T22:37:59;7.50;;;3.78;;
17504;SDS011;8870;50.950;11.762;2024-01-16T22:43:33;6.57;;;4.38;;
17504;SDS011;8870;50.950;11.762;2024-01-16T22:48:57;7.38;;;3.90;;
17504;SDS011;8870;50.950;11.762;2024-01-16T22:54:28;6.43;;;4.50;;
17504;SDS011;8870;50.950;11.762;2024-01-16T22:59:49;11.95;;;4.38;;
17504;SDS011;8870;50.950;11.762;2024-01-16T23:05:20;6.88;;;4.45;;
17504;SDS011;8870;50.950;11.762;2024-01-16T23:10:39;8.07;;;4.55;;
17504;SDS011;8870;50.950;11.762;2024-01-16T23:16:13;8.18;;;4.22;;
17504;SDS011;8870;50.950;11.762;2024-01-16T23:21:32;8.98;;;4.20;;
17504;SDS011;8870;50.950;11.762;2024-01-16T23:27:03;7.45;;;3.78;;
17504;SDS011;8870;50.950;11.762;2024-01-16T23:32:28;5.93;;;3.92;;
17504;SDS011;8870;50.950;11.762;2024-01-16T23:37:59;6.93;;;3.92;;
17504;SDS011;8870;50.950;11.762;2024-01-16T23:43:18;7.78;;;4.88;;
17504;SDS011;8870;50.950;11.762;2024-01-16T23:48:57;8.98;;;4.18;;
17504;SDS011;8870;50.950;11.762;2024-01-16T23:54:29;6.72;;;3.75;;
17504;SDS011;8870;50.950;11.762;2024-01-16T23:59:48;7.15;;;3.63;;
